sensor_id;sensor_type;location;lat;lon;timestamp;P1;durP1;ratioP1;P2;durP2;ratioP2
6442;SDS011;3254;47.372;8.512;2024-01-10T00:02:00;63.17;;;24.93;;
6442;SDS011;3254;47.372;8.512;2024-01-10T00:04:25;59.90;;;26.63;;
6442;SDS011;3254;47.372;8.512;2024-01-10T00:06:52;51.35;;;22.52;;
6442;SDS011;3254;47.372;8.512;2024-01-10T00:09:17;58.37;;;26.00;;
6442;SDS011;3254;47.372;8.512;2024-01-10T00:11:44;57.50;;;25.15;;
6442;SDS011;3254;47.372;8.512;2024-01-10T00:14:09;50.17;;;23.90;;
6442;SDS011;3254;47.372;8.512;2024-01-10T00:16:35;59.33;;;25.60;;
6442;SDS011;3254;47.372;8.512;2024-01-10T00:19:11;55.28;;;26.30;;
6442;SDS011;3254;47.372;8.512;2024-01-10T00:21:37;60.57;;;25.50;;
6442;SDS011;3254;47.372;8.512;2024-01-10T00:24:04;49.30;;;23.60;;
6442;SDS011;3254;47.372;8.512;2024-01-10T00:26:29;54.50;;;24.17;;
6442;SDS011;3254;47.372;8.512;2024-01-10T00:28:55;48.70;;;23.13;;
6442;SDS011;3254;47.372;8.512;2024-01-10T00:31:20;54.37;;;24.40;;
6442;SDS011;3254;47.372;8.512;2024-01-10T00:33:46;51.37;;;25.13;;
6442;SDS011;3254;47.372;8.512;2024-01-10T00:36:11;57.40;;;25.80;;
6442;SDS011;3254;47.372;8.512;2024-01-10T00:38:37;55.30;;;24.57;;
6442;SDS011;3254;47.372;8.512;2024-01-10T00:41:03;54.10;;;24.90;;
6442;SDS011;3254;47.372;8.512;2024-01-10T00:43:31;52.37;;;24.33;;
6442;SDS011;3254;47.372;8.512;2024-01-10T00:45:57;57.53;;;24.92;;
6442;SDS011;3254;47.372;8.512;2024-01-10T00:48:23;49.33;;;23.43;;
6442;SDS011;3254;47.372;8.512;2024-01-10T00:50:48;55.80;;;24.70;;
6442;SDS011;3254;47.372;8.512;2024-01-10T00:53:13;49.87;;;24.97;;
6442;SDS011;3254;47.372;8.512;2024-01-10T00:55:39;52.87;;;25.60;;
6442;SDS011;3254;47.372;8.512;2024-01-10T00:58:04;50.13;;;24.57;;
6442;SDS011;3254;47.372;8.512;2024-01-10T01:00:45;47.30;;;23.45;;
6442;SDS011;3254;47.372;8.512;2024-01-10T01:03:10;53.57;;;26.03;;
6442;SDS011;3254;47.372;8.512;2024-01-10T01:05:35;50.93;;;24.63;;
6442;SDS011;3254;47.372;8.512;2024-01-10T01:08:01;51.67;;;23.90;;
6442;SDS011;3254;47.372;8.512;2024-01-10T01:10:26;48.83;;;22.60;;
6442;SDS011;3254;47.372;8.512;2024-01-10T01:12:51;50.70;;;23.73;;
6442;SDS011;3254;47.372;8.512;2024-01-10T01:15:17;43.60;;;22.77;;
6442;SDS011;3254;47.372;8.512;2024-01-10T01:17:43;54.00;;;24.00;;
6442;SDS011;3254;47.372;8.512;2024-01-10T01:20:08;45.43;;;23.37;;
6442;SDS011;3254;47.372;8.512;2024-01-10T01:22:34;49.03;;;23.50;;
6442;SDS011;3254;47.372;8.512;2024-01-10T01:24:59;46.80;;;23.20;;
6442;SDS011;3254;47.372;8.512;2024-01-10T01:27:26;52.33;;;24.90;;
6442;SDS011;3254;47.372;8.512;2024-01-10T01:29:56;55.17;;;25.65;;
6442;SDS011;3254;47.372;8.512;2024-01-10T01:32:21;49.63;;;23.50;;
6442;SDS011;3254;47.372;8.512;2024-01-10T01:34:46;53.13;;;24.90;;
6442;SDS011;3254;47.372;8.512;2024-01-10T01:37:12;46.13;;;22.20;;
6442;SDS011;3254;47.372;8.512;2024-01-10T01:39:37;48.80;;;22.83;;
6442;SDS011;3254;47.372;8.512;2024-01-10T01:42:03;43.60;;;23.10;;
6442;SDS011;3254;47.372;8.512;2024-01-10T01:44:28;52.73;;;24.07;;
6442;SDS011;3254;47.372;8.512;2024-01-10T01:46:54;50.13;;;24.37;;
6442;SDS011;3254;47.372;8.512;2024-01-10T01:49:19;55.63;;;25.23;;
6442;SDS011;3254;47.372;8.512;2024-01-10T01:51:46;51.17;;;23.98;;
6442;SDS011;3254;47.372;8.512;2024-01-10T01:54:12;54.10;;;25.57;;
6442;SDS011;3254;47.372;8.512;2024-01-10T01:56:38;53.10;;;25.20;;
6442;SDS011;3254;47.372;8.512;2024-01-10T01:59:04;53.10;;;23.73;;
6442;SDS011;3254;47.372;8.512;2024-01-10T02:01:31;52.83;;;24.90;;
6442;SDS011;3254;47.372;8.512;2024-01-10T02:03:56;56.65;;;25.63;;
6442;SDS011;3254;47.372;8.512;2024-01-10T02:06:23;59.08;;;26.50;;
6442;SDS011;3254;47.372;8.512;2024-01-10T02:08:49;51.37;;;24.10;;
6442;SDS011;3254;47.372;8.512;2024-01-10T02:11:14;53.17;;;25.20;;
6442;SDS011;3254;47.372;8.512;2024-01-10T02:13:40;49.42;;;25.13;;
6442;SDS011;3254;47.372;8.512;2024-01-10T02:16:06;47.57;;;24.10;;
6442;SDS011;3254;47.372;8.512;2024-01-10T02:18:33;51.40;;;25.20;;
6442;SDS011;3254;47.372;8.512;2024-01-10T02:21:00;52.92;;;24.85;;
6442;SDS011;3254;47.372;8.512;2024-01-10T02:23:25;49.50;;;24.87;;
6442;SDS011;3254;47.372;8.512;2024-01-10T02:25:51;54.60;;;24.00;;
6442;SDS011;3254;47.372;8.512;2024-01-10T02:28:16;59.27;;;26.57;;
6442;SDS011;3254;47.372;8.512;2024-01-10T02:30:41;41.43;;;22.90;;
6442;SDS011;3254;47.372;8.512;2024-01-10T02:33:07;52.83;;;25.00;;
6442;SDS011;3254;47.372;8.512;2024-01-10T02:35:32;61.63;;;25.17;;
6442;SDS011;3254;47.372;8.512;2024-01-10T02:37:58;53.60;;;24.33;;
6442;SDS011;3254;47.372;8.512;2024-01-10T02:40:24;50.97;;;23.43;;
6442;SDS011;3254;47.372;8.512;2024-01-10T02:42:49;47.40;;;23.37;;
6442;SDS011;3254;47.372;8.512;2024-01-10T02:45:16;50.33;;;24.35;;
6442;SDS011;3254;47.372;8.512;2024-01-10T02:47:41;54.40;;;24.37;;
6442;SDS011;3254;47.372;8.512;2024-01-10T02:50:07;50.03;;;24.10;;
6442;SDS011;3254;47.372;8.512;2024-01-10T02:52:32;49.90;;;24.33;;
6442;SDS011;3254;47.372;8.512;2024-01-10T02:54:59;53.25;;;23.80;;
6442;SDS011;3254;47.372;8.512;2024-01-10T02:57:24;52.23;;;25.03;;
6442;SDS011;3254;47.372;8.512;2024-01-10T02:59:50;46.97;;;23.47;;
6442;SDS011;3254;47.372;8.512;2024-01-10T03:02:15;52.67;;;24.77;;
6442;SDS011;3254;47.372;8.512;2024-01-10T03:04:41;48.47;;;23.27;;
6442;SDS011;3254;47.372;8.512;2024-01-10T03:07:07;46.60;;;23.20;;
6442;SDS011;3254;47.372;8.512;2024-01-10T03:09:33;45.63;;;23.50;;
6442;SDS011;3254;47.372;8.512;2024-01-10T03:11:58;52.97;;;24.33;;
6442;SDS011;3254;47.372;8.512;2024-01-10T03:14:23;49.57;;;22.37;;
6442;SDS011;3254;47.372;8.512;2024-01-10T03:16:49;51.43;;;22.70;;
6442;SDS011;3254;47.372;8.512;2024-01-10T03:19:14;51.77;;;24.10;;
6442;SDS011;3254;47.372;8.512;2024-01-10T03:21:41;50.70;;;25.00;;
6442;SDS011;3254;47.372;8.512;2024-01-10T03:24:06;52.87;;;24.10;;
6442;SDS011;3254;47.372;8.512;2024-01-10T03:26:32;46.10;;;23.23;;
6442;SDS011;3254;47.372;8.512;2024-01-10T03:28:57;60.73;;;26.40;;
6442;SDS011;3254;47.372;8.512;2024-01-10T03:31:23;47.10;;;21.97;;
6442;SDS011;3254;47.372;8.512;2024-01-10T03:33:49;59.35;;;24.30;;
6442;SDS011;3254;47.372;8.512;2024-01-10T03:36:15;49.28;;;23.13;;
6442;SDS011;3254;47.372;8.512;2024-01-10T03:38:41;67.15;;;25.60;;
6442;SDS011;3254;47.372;8.512;2024-01-10T03:41:07;50.33;;;24.40;;
6442;SDS011;3254;47.372;8.512;2024-01-10T03:43:33;47.77;;;23.43;;
6442;SDS011;3254;47.372;8.512;2024-01-10T03:45:58;53.50;;;24.00;;
6442;SDS011;3254;47.372;8.512;2024-01-10T03:48:24;47.23;;;24.30;;
6442;SDS011;3254;47.372;8.512;2024-01-10T03:50:50;53.87;;;24.30;;
6442;SDS011;3254;47.372;8.512;2024-01-10T03:53:15;50.87;;;24.33;;
6442;SDS011;3254;47.372;8.512;2024-01-10T03:55:41;48.50;;;24.27;;
6442;SDS011;3254;47.372;8.512;2024-01-10T03:58:06;48.47;;;23.40;;
6442;SDS011;3254;47.372;8.512;2024-01-10T04:00:33;51.97;;;25.07;;
6442;SDS011;3254;47.372;8.512;2024-01-10T04:02:58;52.35;;;24.42;;
6442;SDS011;3254;47.372;8.512;2024-01-10T04:05:24;48.60;;;24.20;;
6442;SDS011;3254;47.372;8.512;2024-01-10T04:07:50;46.45;;;23.40;;
6442;SDS011;3254;47.372;8.512;2024-01-10T04:10:16;53.33;;;23.60;;
6442;SDS011;3254;47.372;8.512;2024-01-10T04:12:41;62.17;;;23.67;;
6442;SDS011;3254;47.372;8.512;2024-01-10T04:15:08;41.88;;;21.15;;
6442;SDS011;3254;47.372;8.512;2024-01-10T04:17:35;52.78;;;24.92;;
6442;SDS011;3254;47.372;8.512;2024-01-10T04:20:01;51.27;;;23.23;;
6442;SDS011;3254;47.372;8.512;2024-01-10T04:22:28;47.53;;;23.48;;
6442;SDS011;3254;47.372;8.512;2024-01-10T04:24:53;55.50;;;24.17;;
6442;SDS011;3254;47.372;8.512;2024-01-10T04:27:19;55.08;;;23.10;;
6442;SDS011;3254;47.372;8.512;2024-01-10T04:29:45;51.90;;;24.90;;
6442;SDS011;3254;47.372;8.512;2024-01-10T04:32:10;54.77;;;24.20;;
6442;SDS011;3254;47.372;8.512;2024-01-10T04:34:35;51.77;;;25.40;;
6442;SDS011;3254;47.372;8.512;2024-01-10T04:37:01;48.47;;;23.77;;
6442;SDS011;3254;47.372;8.512;2024-01-10T04:39:27;51.60;;;24.53;;
6442;SDS011;3254;47.372;8.512;2024-01-10T04:41:52;51.03;;;26.10;;
6442;SDS011;3254;47.372;8.512;2024-01-10T04:44:17;54.10;;;24.83;;
6442;SDS011;3254;47.372;8.512;2024-01-10T04:46:43;53.73;;;24.70;;
6442;SDS011;3254;47.372;8.512;2024-01-10T04:49:09;53.80;;;23.83;;
6442;SDS011;3254;47.372;8.512;2024-01-10T04:51:35;50.97;;;23.00;;
6442;SDS011;3254;47.372;8.512;2024-01-10T04:54:00;55.23;;;23.67;;
6442;SDS011;3254;47.372;8.512;2024-01-10T04:56:26;47.93;;;23.33;;
6442;SDS011;3254;47.372;8.512;2024-01-10T04:58:52;52.27;;;24.90;;
6442;SDS011;3254;47.372;8.512;2024-01-10T05:01:17;50.30;;;24.67;;
6442;SDS011;3254;47.372;8.512;2024-01-10T05:03:43;56.63;;;23.80;;
6442;SDS011;3254;47.372;8.512;2024-01-10T05:06:10;50.05;;;24.52;;
6442;SDS011;3254;47.372;8.512;2024-01-10T05:08:36;56.50;;;25.80;;
6442;SDS011;3254;47.372;8.512;2024-01-10T05:11:01;54.50;;;24.67;;
6442;SDS011;3254;47.372;8.512;2024-01-10T05:13:29;53.90;;;24.60;;
6442;SDS011;3254;47.372;8.512;2024-01-10T05:16:05;52.45;;;24.50;;
6442;SDS011;3254;47.372;8.512;2024-01-10T05:18:31;58.97;;;25.47;;
6442;SDS011;3254;47.372;8.512;2024-01-10T05:20:56;54.50;;;24.33;;
6442;SDS011;3254;47.372;8.512;2024-01-10T05:23:22;48.03;;;24.13;;
6442;SDS011;3254;47.372;8.512;2024-01-10T05:25:48;47.80;;;23.73;;
6442;SDS011;3254;47.372;8.512;2024-01-10T05:28:13;57.00;;;24.77;;
6442;SDS011;3254;47.372;8.512;2024-01-10T05:30:39;60.00;;;25.80;;
6442;SDS011;3254;47.372;8.512;2024-01-10T05:33:05;55.50;;;24.57;;
6442;SDS011;3254;47.372;8.512;2024-01-10T05:35:31;54.15;;;24.67;;
6442;SDS011;3254;47.372;8.512;2024-01-10T05:38:02;56.92;;;24.30;;
6442;SDS011;3254;47.372;8.512;2024-01-10T05:40:28;55.20;;;24.23;;
6442;SDS011;3254;47.372;8.512;2024-01-10T05:42:57;55.00;;;24.67;;
6442;SDS011;3254;47.372;8.512;2024-01-10T05:45:24;52.58;;;24.60;;
6442;SDS011;3254;47.372;8.512;2024-01-10T05:47:50;48.10;;;23.70;;
6442;SDS011;3254;47.372;8.512;2024-01-10T05:50:15;49.40;;;23.87;;
6442;SDS011;3254;47.372;8.512;2024-01-10T05:52:40;54.17;;;25.67;;
6442;SDS011;3254;47.372;8.512;2024-01-10T05:55:06;59.60;;;25.33;;
6442;SDS011;3254;47.372;8.512;2024-01-10T05:57:34;49.50;;;22.80;;
6442;SDS011;3254;47.372;8.512;2024-01-10T05:59:59;53.45;;;24.83;;
6442;SDS011;3254;47.372;8.512;2024-01-10T06:02:25;57.00;;;26.80;;
6442;SDS011;3254;47.372;8.512;2024-01-10T06:04:50;51.37;;;24.73;;
6442;SDS011;3254;47.372;8.512;2024-01-10T06:07:16;59.60;;;25.80;;
6442;SDS011;3254;47.372;8.512;2024-01-10T06:09:41;54.70;;;25.07;;
6442;SDS011;3254;47.372;8.512;2024-01-10T06:12:08;48.83;;;22.67;;
6442;SDS011;3254;47.372;8.512;2024-01-10T06:14:34;56.80;;;25.80;;
6442;SDS011;3254;47.372;8.512;2024-01-10T06:16:59;49.87;;;24.87;;
6442;SDS011;3254;47.372;8.512;2024-01-10T06:19:26;51.25;;;25.15;;
6442;SDS011;3254;47.372;8.512;2024-01-10T06:21:51;63.20;;;25.63;;
6442;SDS011;3254;47.372;8.512;2024-01-10T06:24:17;48.73;;;24.10;;
6442;SDS011;3254;47.372;8.512;2024-01-10T06:26:43;48.73;;;23.20;;
6442;SDS011;3254;47.372;8.512;2024-01-10T06:29:08;50.87;;;25.53;;
6442;SDS011;3254;47.372;8.512;2024-01-10T06:31:33;49.90;;;24.63;;
6442;SDS011;3254;47.372;8.512;2024-01-10T06:33:59;50.30;;;24.13;;
6442;SDS011;3254;47.372;8.512;2024-01-10T06:36:27;58.53;;;26.30;;
6442;SDS011;3254;47.372;8.512;2024-01-10T06:38:53;53.70;;;24.90;;
6442;SDS011;3254;47.372;8.512;2024-01-10T06:41:20;55.30;;;25.67;;
6442;SDS011;3254;47.372;8.512;2024-01-10T06:43:49;56.30;;;25.85;;
6442;SDS011;3254;47.372;8.512;2024-01-10T06:46:17;58.17;;;24.60;;
6442;SDS011;3254;47.372;8.512;2024-01-10T06:48:42;57.50;;;25.63;;
6442;SDS011;3254;47.372;8.512;2024-01-10T06:51:17;60.60;;;26.17;;
6442;SDS011;3254;47.372;8.512;2024-01-10T06:53:44;47.60;;;24.88;;
6442;SDS011;3254;47.372;8.512;2024-01-10T06:56:10;56.40;;;25.10;;
6442;SDS011;3254;47.372;8.512;2024-01-10T06:58:35;53.13;;;23.63;;
6442;SDS011;3254;47.372;8.512;2024-01-10T07:01:01;54.73;;;25.87;;
6442;SDS011;3254;47.372;8.512;2024-01-10T07:03:29;61.35;;;27.23;;
6442;SDS011;3254;47.372;8.512;2024-01-10T07:05:55;57.10;;;24.60;;
6442;SDS011;3254;47.372;8.512;2024-01-10T07:08:22;53.17;;;25.42;;
6442;SDS011;3254;47.372;8.512;2024-01-10T07:10:47;51.50;;;26.07;;
6442;SDS011;3254;47.372;8.512;2024-01-10T07:13:13;56.20;;;26.47;;
6442;SDS011;3254;47.372;8.512;2024-01-10T07:15:38;70.83;;;25.07;;
6442;SDS011;3254;47.372;8.512;2024-01-10T07:18:05;55.97;;;25.55;;
6442;SDS011;3254;47.372;8.512;2024-01-10T07:20:31;57.53;;;26.10;;
6442;SDS011;3254;47.372;8.512;2024-01-10T07:22:59;68.18;;;27.65;;
6442;SDS011;3254;47.372;8.512;2024-01-10T07:25:25;72.13;;;27.60;;
6442;SDS011;3254;47.372;8.512;2024-01-10T07:27:51;56.47;;;26.37;;
6442;SDS011;3254;47.372;8.512;2024-01-10T07:30:16;57.20;;;26.38;;
6442;SDS011;3254;47.372;8.512;2024-01-10T07:32:42;63.37;;;26.30;;
6442;SDS011;3254;47.372;8.512;2024-01-10T07:35:12;55.80;;;25.85;;
6442;SDS011;3254;47.372;8.512;2024-01-10T07:37:39;59.10;;;26.00;;
6442;SDS011;3254;47.372;8.512;2024-01-10T07:40:05;52.50;;;24.70;;
6442;SDS011;3254;47.372;8.512;2024-01-10T07:42:37;53.65;;;25.52;;
6442;SDS011;3254;47.372;8.512;2024-01-10T07:45:03;53.28;;;25.55;;
6442;SDS011;3254;47.372;8.512;2024-01-10T07:47:32;56.53;;;25.33;;
6442;SDS011;3254;47.372;8.512;2024-01-10T07:52:31;57.60;;;25.58;;
6442;SDS011;3254;47.372;8.512;2024-01-10T07:54:57;47.42;;;23.92;;
6442;SDS011;3254;47.372;8.512;2024-01-10T07:57:24;53.53;;;24.88;;
6442;SDS011;3254;47.372;8.512;2024-01-10T07:59:49;56.40;;;27.07;;
6442;SDS011;3254;47.372;8.512;2024-01-10T08:02:16;56.77;;;25.37;;
6442;SDS011;3254;47.372;8.512;2024-01-10T08:04:43;51.20;;;24.90;;
6442;SDS011;3254;47.372;8.512;2024-01-10T08:07:08;51.63;;;25.90;;
6442;SDS011;3254;47.372;8.512;2024-01-10T08:09:34;50.88;;;25.40;;
6442;SDS011;3254;47.372;8.512;2024-01-10T08:12:00;46.77;;;23.80;;
6442;SDS011;3254;47.372;8.512;2024-01-10T08:14:25;50.13;;;25.43;;
6442;SDS011;3254;47.372;8.512;2024-01-10T08:16:53;51.95;;;25.25;;
6442;SDS011;3254;47.372;8.512;2024-01-10T08:19:19;51.10;;;23.23;;
6442;SDS011;3254;47.372;8.512;2024-01-10T08:21:45;56.13;;;26.83;;
6442;SDS011;3254;47.372;8.512;2024-01-10T08:24:11;52.60;;;26.75;;
6442;SDS011;3254;47.372;8.512;2024-01-10T08:26:37;44.07;;;24.63;;
6442;SDS011;3254;47.372;8.512;2024-01-10T08:29:04;48.40;;;24.17;;
6442;SDS011;3254;47.372;8.512;2024-01-10T08:31:30;48.95;;;24.98;;
6442;SDS011;3254;47.372;8.512;2024-01-10T08:33:57;53.13;;;24.13;;
6442;SDS011;3254;47.372;8.512;2024-01-10T08:36:22;49.45;;;24.27;;
6442;SDS011;3254;47.372;8.512;2024-01-10T08:38:49;53.85;;;24.23;;
6442;SDS011;3254;47.372;8.512;2024-01-10T08:41:16;44.30;;;23.52;;
6442;SDS011;3254;47.372;8.512;2024-01-10T08:43:42;42.78;;;23.23;;
6442;SDS011;3254;47.372;8.512;2024-01-10T08:46:08;49.90;;;25.00;;
6442;SDS011;3254;47.372;8.512;2024-01-10T08:48:38;52.92;;;24.30;;
6442;SDS011;3254;47.372;8.512;2024-01-10T08:51:04;49.00;;;24.87;;
6442;SDS011;3254;47.372;8.512;2024-01-10T08:53:31;48.13;;;24.50;;
6442;SDS011;3254;47.372;8.512;2024-01-10T08:55:56;47.07;;;22.87;;
6442;SDS011;3254;47.372;8.512;2024-01-10T08:58:22;49.80;;;24.63;;
6442;SDS011;3254;47.372;8.512;2024-01-10T09:00:48;49.22;;;23.10;;
6442;SDS011;3254;47.372;8.512;2024-01-10T09:03:13;48.60;;;24.03;;
6442;SDS011;3254;47.372;8.512;2024-01-10T09:05:40;46.08;;;24.25;;
6442;SDS011;3254;47.372;8.512;2024-01-10T09:08:05;53.50;;;25.00;;
6442;SDS011;3254;47.372;8.512;2024-01-10T09:10:31;53.50;;;24.80;;
6442;SDS011;3254;47.372;8.512;2024-01-10T09:12:58;52.08;;;25.48;;
6442;SDS011;3254;47.372;8.512;2024-01-10T09:15:23;51.35;;;24.30;;
6442;SDS011;3254;47.372;8.512;2024-01-10T09:17:50;53.20;;;24.43;;
6442;SDS011;3254;47.372;8.512;2024-01-10T09:20:17;47.85;;;24.38;;
6442;SDS011;3254;47.372;8.512;2024-01-10T09:22:42;52.43;;;26.93;;
6442;SDS011;3254;47.372;8.512;2024-01-10T09:25:09;50.07;;;24.50;;
6442;SDS011;3254;47.372;8.512;2024-01-10T09:27:38;50.22;;;26.08;;
6442;SDS011;3254;47.372;8.512;2024-01-10T09:30:12;47.10;;;25.20;;
6442;SDS011;3254;47.372;8.512;2024-01-10T09:32:43;49.38;;;25.27;;
6442;SDS011;3254;47.372;8.512;2024-01-10T09:35:10;50.60;;;27.20;;
6442;SDS011;3254;47.372;8.512;2024-01-10T09:37:36;50.37;;;26.03;;
6442;SDS011;3254;47.372;8.512;2024-01-10T09:40:03;50.90;;;25.27;;
6442;SDS011;3254;47.372;8.512;2024-01-10T09:42:32;52.90;;;24.52;;
6442;SDS011;3254;47.372;8.512;2024-01-10T09:44:58;41.88;;;23.83;;
6442;SDS011;3254;47.372;8.512;2024-01-10T09:47:24;47.22;;;23.30;;
6442;SDS011;3254;47.372;8.512;2024-01-10T09:49:50;61.58;;;26.42;;
6442;SDS011;3254;47.372;8.512;2024-01-10T09:52:24;46.97;;;24.85;;
6442;SDS011;3254;47.372;8.512;2024-01-10T09:54:53;57.85;;;26.55;;
6442;SDS011;3254;47.372;8.512;2024-01-10T09:57:24;48.33;;;26.50;;
6442;SDS011;3254;47.372;8.512;2024-01-10T09:59:50;54.75;;;25.80;;
6442;SDS011;3254;47.372;8.512;2024-01-10T10:02:18;53.22;;;26.27;;
6442;SDS011;3254;47.372;8.512;2024-01-10T10:05:17;53.80;;;26.38;;
6442;SDS011;3254;47.372;8.512;2024-01-10T10:07:47;56.80;;;26.50;;
6442;SDS011;3254;47.372;8.512;2024-01-10T10:10:21;53.25;;;26.52;;
6442;SDS011;3254;47.372;8.512;2024-01-10T10:12:50;49.00;;;25.33;;
6442;SDS011;3254;47.372;8.512;2024-01-10T10:15:18;48.17;;;26.70;;
6442;SDS011;3254;47.372;8.512;2024-01-10T10:17:47;51.72;;;26.00;;
6442;SDS011;3254;47.372;8.512;2024-01-10T10:20:23;43.95;;;24.63;;
6442;SDS011;3254;47.372;8.512;2024-01-10T10:25:28;53.47;;;26.95;;
6442;SDS011;3254;47.372;8.512;2024-01-10T10:27:56;55.20;;;27.38;;
6442;SDS011;3254;47.372;8.512;2024-01-10T10:30:22;51.20;;;27.15;;
6442;SDS011;3254;47.372;8.512;2024-01-10T10:32:48;50.30;;;27.33;;
6442;SDS011;3254;47.372;8.512;2024-01-10T10:35:14;57.75;;;28.10;;
6442;SDS011;3254;47.372;8.512;2024-01-10T10:37:39;52.47;;;26.70;;
6442;SDS011;3254;47.372;8.512;2024-01-10T10:40:05;70.67;;;26.63;;
6442;SDS011;3254;47.372;8.512;2024-01-10T10:42:34;56.45;;;26.23;;
6442;SDS011;3254;47.372;8.512;2024-01-10T10:45:02;58.20;;;28.83;;
6442;SDS011;3254;47.372;8.512;2024-01-10T10:47:30;50.17;;;25.38;;
6442;SDS011;3254;47.372;8.512;2024-01-10T10:49:57;62.55;;;27.75;;
6442;SDS011;3254;47.372;8.512;2024-01-10T10:52:25;58.00;;;27.92;;
6442;SDS011;3254;47.372;8.512;2024-01-10T10:54:52;60.03;;;27.83;;
6442;SDS011;3254;47.372;8.512;2024-01-10T10:57:22;63.97;;;27.67;;
6442;SDS011;3254;47.372;8.512;2024-01-10T10:59:48;57.27;;;27.70;;
6442;SDS011;3254;47.372;8.512;2024-01-10T11:02:16;57.92;;;26.05;;
6442;SDS011;3254;47.372;8.512;2024-01-10T11:04:46;54.42;;;27.13;;
6442;SDS011;3254;47.372;8.512;2024-01-10T11:07:12;53.17;;;25.00;;
6442;SDS011;3254;47.372;8.512;2024-01-10T11:09:41;58.85;;;27.50;;
6442;SDS011;3254;47.372;8.512;2024-01-10T11:14:53;55.50;;;27.85;;
6442;SDS011;3254;47.372;8.512;2024-01-10T11:25:47;61.30;;;29.17;;
6442;SDS011;3254;47.372;8.512;2024-01-10T11:28:13;61.17;;;28.93;;
6442;SDS011;3254;47.372;8.512;2024-01-10T11:30:49;67.00;;;30.80;;
6442;SDS011;3254;47.372;8.512;2024-01-10T11:36:06;70.72;;;28.58;;
6442;SDS011;3254;47.372;8.512;2024-01-10T11:46:54;68.65;;;29.45;;
6442;SDS011;3254;47.372;8.512;2024-01-10T11:49:21;60.85;;;27.77;;
6442;SDS011;3254;47.372;8.512;2024-01-10T11:51:49;64.70;;;29.33;;
6442;SDS011;3254;47.372;8.512;2024-01-10T11:54:35;63.05;;;29.58;;
6442;SDS011;3254;47.372;8.512;2024-01-10T11:57:13;61.67;;;28.38;;
6442;SDS011;3254;47.372;8.512;2024-01-10T11:59:52;58.42;;;27.52;;
6442;SDS011;3254;47.372;8.512;2024-01-10T12:02:18;62.33;;;27.63;;
6442;SDS011;3254;47.372;8.512;2024-01-10T12:04:47;63.20;;;28.15;;
6442;SDS011;3254;47.372;8.512;2024-01-10T12:07:14;58.22;;;27.25;;
6442;SDS011;3254;47.372;8.512;2024-01-10T12:09:41;66.68;;;28.95;;
6442;SDS011;3254;47.372;8.512;2024-01-10T12:12:09;64.35;;;28.38;;
6442;SDS011;3254;47.372;8.512;2024-01-10T12:14:37;73.20;;;29.15;;
6442;SDS011;3254;47.372;8.512;2024-01-10T12:17:03;61.43;;;28.23;;
6442;SDS011;3254;47.372;8.512;2024-01-10T12:19:30;65.80;;;29.23;;
6442;SDS011;3254;47.372;8.512;2024-01-10T12:21:55;64.23;;;29.27;;
6442;SDS011;3254;47.372;8.512;2024-01-10T12:24:21;61.88;;;28.20;;
6442;SDS011;3254;47.372;8.512;2024-01-10T12:26:47;57.07;;;27.10;;
6442;SDS011;3254;47.372;8.512;2024-01-10T12:29:19;58.97;;;28.05;;
6442;SDS011;3254;47.372;8.512;2024-01-10T12:31:52;57.40;;;27.30;;
6442;SDS011;3254;47.372;8.512;2024-01-10T12:34:19;51.85;;;24.60;;
6442;SDS011;3254;47.372;8.512;2024-01-10T12:36:46;59.80;;;27.02;;
6442;SDS011;3254;47.372;8.512;2024-01-10T12:39:13;60.72;;;27.88;;
6442;SDS011;3254;47.372;8.512;2024-01-10T12:41:41;54.20;;;28.10;;
6442;SDS011;3254;47.372;8.512;2024-01-10T12:44:07;56.10;;;27.73;;
6442;SDS011;3254;47.372;8.512;2024-01-10T12:46:33;53.70;;;25.20;;
6442;SDS011;3254;47.372;8.512;2024-01-10T12:49:04;56.57;;;26.53;;
6442;SDS011;3254;47.372;8.512;2024-01-10T12:51:32;55.50;;;25.95;;
6442;SDS011;3254;47.372;8.512;2024-01-10T12:53:58;60.58;;;26.15;;
6442;SDS011;3254;47.372;8.512;2024-01-10T12:56:25;58.60;;;26.63;;
6442;SDS011;3254;47.372;8.512;2024-01-10T12:58:51;64.30;;;28.02;;
6442;SDS011;3254;47.372;8.512;2024-01-10T13:01:17;57.00;;;28.20;;
6442;SDS011;3254;47.372;8.512;2024-01-10T13:03:43;58.70;;;26.13;;
6442;SDS011;3254;47.372;8.512;2024-01-10T13:06:09;58.53;;;24.83;;
6442;SDS011;3254;47.372;8.512;2024-01-10T13:08:35;58.00;;;25.42;;
6442;SDS011;3254;47.372;8.512;2024-01-10T13:11:02;52.15;;;24.85;;
6442;SDS011;3254;47.372;8.512;2024-01-10T13:13:33;51.15;;;23.45;;
6442;SDS011;3254;47.372;8.512;2024-01-10T13:15:59;62.47;;;24.10;;
6442;SDS011;3254;47.372;8.512;2024-01-10T13:18:25;54.22;;;23.40;;
6442;SDS011;3254;47.372;8.512;2024-01-10T13:20:54;52.85;;;24.70;;
6442;SDS011;3254;47.372;8.512;2024-01-10T13:23:20;55.97;;;23.23;;
6442;SDS011;3254;47.372;8.512;2024-01-10T13:25:48;50.38;;;22.52;;
6442;SDS011;3254;47.372;8.512;2024-01-10T13:28:15;52.83;;;23.30;;
6442;SDS011;3254;47.372;8.512;2024-01-10T13:30:42;47.53;;;22.80;;
6442;SDS011;3254;47.372;8.512;2024-01-10T13:33:08;49.95;;;22.38;;
6442;SDS011;3254;47.372;8.512;2024-01-10T13:35:35;48.70;;;22.65;;
6442;SDS011;3254;47.372;8.512;2024-01-10T13:38:05;47.90;;;22.45;;
6442;SDS011;3254;47.372;8.512;2024-01-10T13:40:31;51.90;;;22.57;;
6442;SDS011;3254;47.372;8.512;2024-01-10T13:42:59;45.60;;;20.85;;
6442;SDS011;3254;47.372;8.512;2024-01-10T13:45:27;47.50;;;20.23;;
6442;SDS011;3254;47.372;8.512;2024-01-10T13:47:53;46.00;;;19.88;;
6442;SDS011;3254;47.372;8.512;2024-01-10T13:50:20;45.63;;;19.93;;
6442;SDS011;3254;47.372;8.512;2024-01-10T13:52:46;40.65;;;20.08;;
6442;SDS011;3254;47.372;8.512;2024-01-10T13:55:12;45.07;;;20.00;;
6442;SDS011;3254;47.372;8.512;2024-01-10T13:57:38;41.05;;;18.02;;
6442;SDS011;3254;47.372;8.512;2024-01-10T14:00:05;38.67;;;18.83;;
6442;SDS011;3254;47.372;8.512;2024-01-10T14:02:34;48.88;;;20.52;;
6442;SDS011;3254;47.372;8.512;2024-01-10T14:05:01;45.13;;;21.70;;
6442;SDS011;3254;47.372;8.512;2024-01-10T14:07:30;45.53;;;19.73;;
6442;SDS011;3254;47.372;8.512;2024-01-10T14:09:57;41.40;;;20.13;;
6442;SDS011;3254;47.372;8.512;2024-01-10T14:12:23;40.10;;;18.50;;
6442;SDS011;3254;47.372;8.512;2024-01-10T14:14:49;38.90;;;18.70;;
6442;SDS011;3254;47.372;8.512;2024-01-10T14:17:15;49.45;;;21.10;;
6442;SDS011;3254;47.372;8.512;2024-01-10T14:19:41;50.33;;;20.67;;
6442;SDS011;3254;47.372;8.512;2024-01-10T14:22:09;46.42;;;19.20;;
6442;SDS011;3254;47.372;8.512;2024-01-10T14:24:35;40.40;;;19.15;;
6442;SDS011;3254;47.372;8.512;2024-01-10T14:27:03;48.05;;;20.02;;
6442;SDS011;3254;47.372;8.512;2024-01-10T14:29:29;48.33;;;22.13;;
6442;SDS011;3254;47.372;8.512;2024-01-10T14:31:55;56.97;;;21.27;;
6442;SDS011;3254;47.372;8.512;2024-01-10T14:34:21;49.70;;;21.17;;
6442;SDS011;3254;47.372;8.512;2024-01-10T14:36:47;46.30;;;19.40;;
6442;SDS011;3254;47.372;8.512;2024-01-10T14:39:13;46.77;;;20.90;;
6442;SDS011;3254;47.372;8.512;2024-01-10T14:41:40;43.63;;;19.48;;
6442;SDS011;3254;47.372;8.512;2024-01-10T14:44:06;58.27;;;21.27;;
6442;SDS011;3254;47.372;8.512;2024-01-10T14:46:31;51.30;;;20.87;;
6442;SDS011;3254;47.372;8.512;2024-01-10T14:48:58;50.72;;;21.25;;
6442;SDS011;3254;47.372;8.512;2024-01-10T14:51:23;50.43;;;21.10;;
6442;SDS011;3254;47.372;8.512;2024-01-10T14:53:49;53.40;;;21.67;;
6442;SDS011;3254;47.372;8.512;2024-01-10T14:56:16;47.42;;;21.20;;
6442;SDS011;3254;47.372;8.512;2024-01-10T14:58:43;47.35;;;22.15;;
6442;SDS011;3254;47.372;8.512;2024-01-10T15:01:10;45.67;;;20.20;;
6442;SDS011;3254;47.372;8.512;2024-01-10T15:03:35;47.90;;;20.23;;
6442;SDS011;3254;47.372;8.512;2024-01-10T15:06:03;46.97;;;20.10;;
6442;SDS011;3254;47.372;8.512;2024-01-10T15:08:30;48.45;;;19.65;;
6442;SDS011;3254;47.372;8.512;2024-01-10T15:10:55;48.97;;;20.03;;
6442;SDS011;3254;47.372;8.512;2024-01-10T15:13:21;46.07;;;20.40;;